LNK052K FAOR-FXMM
Flight info
| Callsign | LNK052K |
|---|---|
| Flight time | 0h 39m |
| Altitude | 26000 |
| Route | HGV5D HGV UZ16 NEVEN UQ8 ATUXO DCT MZV |
| Aircraft | RJ85/M-SDFGIRWY/LB1 |
Departure
| Time | 2026-05-06 07:58 |
|---|---|
| Airport | O.R. Tambo International Airport (FAOR) |
Arrival
| Time | 2026-05-06 08:37 |
|---|---|
| Airport | Moshoeshoe I International Airport (FXMM) |
| Time | Latitude | Longitude | Altitude | Speed | Heading |
|---|---|---|---|---|---|
| 2026-05-06 07:17 | -26.13693 | 28.22749 | 5546 ft | 0 kts | 11° |
| 2026-05-06 07:54 | -26.13684 | 28.22751 | 5547 ft | 3 kts | 11° |
| 2026-05-06 07:54 | -26.13662 | 28.22778 | 5546 ft | 8 kts | 96° |
| 2026-05-06 07:54 | -26.13684 | 28.22844 | 5550 ft | 11 kts | 148° |
| 2026-05-06 07:55 | -26.13755 | 28.22888 | 5548 ft | 12 kts | 129° |
| 2026-05-06 07:55 | -26.13774 | 28.22980 | 5547 ft | 13 kts | 96° |
| 2026-05-06 07:55 | -26.13785 | 28.23092 | 5549 ft | 16 kts | 96° |
| 2026-05-06 07:55 | -26.13797 | 28.23223 | 5548 ft | 17 kts | 96° |
| 2026-05-06 07:56 | -26.13828 | 28.23323 | 5549 ft | 12 kts | 141° |
| 2026-05-06 07:56 | -26.13871 | 28.23407 | 5554 ft | 13 kts | 105° |
| 2026-05-06 07:56 | -26.13892 | 28.23489 | 5562 ft | 10 kts | 105° |
| 2026-05-06 07:56 | -26.13911 | 28.23566 | 5563 ft | 11 kts | 106° |
| 2026-05-06 07:57 | -26.13921 | 28.23654 | 5564 ft | 10 kts | 53° |
| 2026-05-06 07:57 | -26.13817 | 28.23691 | 5561 ft | 36 kts | 15° |
| 2026-05-06 07:57 | -26.13358 | 28.23833 | 5548 ft | 99 kts | 16° |
| 2026-05-06 07:57 | -26.12529 | 28.24089 | 5545 ft | 146 kts | 14° |
| 2026-05-06 07:58 | -26.11487 | 28.24393 | 5859 ft | 159 kts | 12° |
| 2026-05-06 07:58 | -26.10416 | 28.24716 | 6464 ft | 160 kts | 11° |
| 2026-05-06 07:58 | -26.09353 | 28.25061 | 7045 ft | 158 kts | 12° |
| 2026-05-06 07:58 | -26.08283 | 28.25450 | 7489 ft | 163 kts | 13° |
| 2026-05-06 07:59 | -26.07222 | 28.25845 | 7879 ft | 164 kts | 12° |
| 2026-05-06 07:59 | -26.06133 | 28.26249 | 8291 ft | 164 kts | 12° |
| 2026-05-06 07:59 | -26.05046 | 28.26663 | 8643 ft | 171 kts | 12° |
| 2026-05-06 07:59 | -26.03850 | 28.27145 | 8687 ft | 195 kts | 20° |
| 2026-05-06 08:00 | -26.03131 | 28.27809 | 8719 ft | 215 kts | 49° |
| 2026-05-06 08:00 | -26.02646 | 28.29475 | 8733 ft | 246 kts | 88° |
| 2026-05-06 08:00 | -26.02914 | 28.31461 | 8839 ft | 272 kts | 101° |
| 2026-05-06 08:00 | -26.03333 | 28.33585 | 9188 ft | 290 kts | 102° |
| 2026-05-06 08:01 | -26.03821 | 28.35819 | 9603 ft | 304 kts | 103° |
| 2026-05-06 08:01 | -26.04357 | 28.38151 | 10020 ft | 318 kts | 103° |
| 2026-05-06 08:01 | -26.04956 | 28.40570 | 10364 ft | 332 kts | 104° |
| 2026-05-06 08:01 | -26.05624 | 28.43083 | 10690 ft | 345 kts | 108° |
| 2026-05-06 08:02 | -26.06879 | 28.45380 | 11106 ft | 354 kts | 136° |
| 2026-05-06 08:02 | -26.08901 | 28.46905 | 11538 ft | 352 kts | 163° |
| 2026-05-06 08:02 | -26.11259 | 28.47418 | 11987 ft | 342 kts | 189° |
| 2026-05-06 08:02 | -26.13551 | 28.46931 | 12447 ft | 333 kts | 207° |
| 2026-05-06 08:03 | -26.15807 | 28.46225 | 12958 ft | 342 kts | 203° |
| 2026-05-06 08:03 | -26.18141 | 28.45609 | 13464 ft | 347 kts | 204° |
| 2026-05-06 08:03 | -26.20499 | 28.44962 | 13966 ft | 351 kts | 206° |
| 2026-05-06 08:03 | -26.22872 | 28.44270 | 14473 ft | 353 kts | 206° |
| 2026-05-06 08:04 | -26.25242 | 28.43540 | 14956 ft | 355 kts | 207° |
| 2026-05-06 08:04 | -26.27635 | 28.42797 | 15398 ft | 359 kts | 207° |
| 2026-05-06 08:04 | -26.30051 | 28.42050 | 15827 ft | 362 kts | 207° |
| 2026-05-06 08:04 | -26.32481 | 28.41289 | 16247 ft | 364 kts | 208° |
| 2026-05-06 08:05 | -26.34929 | 28.40514 | 16646 ft | 367 kts | 208° |
| 2026-05-06 08:05 | -26.37397 | 28.39732 | 17028 ft | 370 kts | 208° |
| 2026-05-06 08:05 | -26.39887 | 28.38951 | 17385 ft | 373 kts | 208° |
| 2026-05-06 08:05 | -26.42397 | 28.38168 | 17743 ft | 376 kts | 208° |
| 2026-05-06 08:06 | -26.44927 | 28.37386 | 18080 ft | 378 kts | 208° |
| 2026-05-06 08:06 | -26.47473 | 28.36605 | 18460 ft | 380 kts | 208° |
| 2026-05-06 08:06 | -26.50021 | 28.35832 | 18810 ft | 379 kts | 208° |
| 2026-05-06 08:06 | -26.52541 | 28.35065 | 19080 ft | 381 kts | 208° |
| 2026-05-06 08:07 | -26.55101 | 28.34256 | 19343 ft | 383 kts | 208° |
| 2026-05-06 08:07 | -26.57678 | 28.33454 | 19636 ft | 386 kts | 208° |
| 2026-05-06 08:07 | -26.60274 | 28.32663 | 19919 ft | 387 kts | 208° |
| 2026-05-06 08:07 | -26.62872 | 28.31851 | 20201 ft | 388 kts | 208° |
| 2026-05-06 08:08 | -26.65478 | 28.31028 | 20481 ft | 390 kts | 208° |
| 2026-05-06 08:08 | -26.68094 | 28.30201 | 20757 ft | 391 kts | 208° |
| 2026-05-06 08:08 | -26.70721 | 28.29373 | 21024 ft | 393 kts | 208° |
| 2026-05-06 08:08 | -26.73363 | 28.28552 | 21279 ft | 395 kts | 208° |
| 2026-05-06 08:09 | -26.76024 | 28.27747 | 21536 ft | 397 kts | 208° |
| 2026-05-06 08:09 | -26.78688 | 28.26921 | 21787 ft | 398 kts | 208° |
| 2026-05-06 08:09 | -26.81367 | 28.26084 | 22017 ft | 402 kts | 208° |
| 2026-05-06 08:09 | -26.84076 | 28.25244 | 22240 ft | 405 kts | 208° |
| 2026-05-06 08:10 | -26.86795 | 28.24402 | 22506 ft | 406 kts | 208° |
| 2026-05-06 08:10 | -26.89528 | 28.23561 | 22750 ft | 408 kts | 208° |
| 2026-05-06 08:10 | -26.92268 | 28.22717 | 22985 ft | 410 kts | 208° |
| 2026-05-06 08:10 | -26.95022 | 28.21848 | 23221 ft | 411 kts | 209° |
| 2026-05-06 08:11 | -26.97777 | 28.20967 | 23449 ft | 413 kts | 209° |
| 2026-05-06 08:11 | -27.00538 | 28.20084 | 23658 ft | 415 kts | 209° |
| 2026-05-06 08:11 | -27.03329 | 28.19223 | 23862 ft | 417 kts | 208° |
| 2026-05-06 08:11 | -27.06126 | 28.18360 | 24064 ft | 417 kts | 209° |
| 2026-05-06 08:12 | -27.08923 | 28.17474 | 24272 ft | 419 kts | 209° |
| 2026-05-06 08:12 | -27.11752 | 28.16585 | 24393 ft | 423 kts | 209° |
| 2026-05-06 08:12 | -27.14595 | 28.15698 | 24596 ft | 424 kts | 209° |
| 2026-05-06 08:12 | -27.17441 | 28.14814 | 24837 ft | 424 kts | 209° |
| 2026-05-06 08:13 | -27.20284 | 28.13933 | 25096 ft | 423 kts | 209° |
| 2026-05-06 08:13 | -27.23123 | 28.13058 | 25343 ft | 423 kts | 209° |
| 2026-05-06 08:13 | -27.25955 | 28.12178 | 25590 ft | 421 kts | 209° |
| 2026-05-06 08:13 | -27.28734 | 28.11289 | 25830 ft | 420 kts | 210° |
| 2026-05-06 08:14 | -27.31533 | 28.10390 | 26000 ft | 420 kts | 210° |
| 2026-05-06 08:14 | -27.34355 | 28.09484 | 26064 ft | 419 kts | 209° |
| 2026-05-06 08:14 | -27.37148 | 28.08623 | 26130 ft | 415 kts | 210° |
| 2026-05-06 08:14 | -27.39941 | 28.07764 | 26113 ft | 418 kts | 210° |
| 2026-05-06 08:15 | -27.42768 | 28.06884 | 26130 ft | 425 kts | 210° |
| 2026-05-06 08:15 | -27.45643 | 28.05979 | 26145 ft | 433 kts | 210° |
| 2026-05-06 08:15 | -27.48554 | 28.05026 | 26135 ft | 438 kts | 211° |
| 2026-05-06 08:15 | -27.51489 | 28.04014 | 26130 ft | 444 kts | 211° |
| 2026-05-06 08:16 | -27.54450 | 28.02968 | 26125 ft | 450 kts | 211° |
| 2026-05-06 08:16 | -27.57459 | 28.01890 | 26121 ft | 456 kts | 211° |
| 2026-05-06 08:16 | -27.60486 | 28.00796 | 26123 ft | 460 kts | 211° |
| 2026-05-06 08:16 | -27.63538 | 27.99690 | 26106 ft | 462 kts | 211° |
| 2026-05-06 08:17 | -27.66610 | 27.98610 | 26166 ft | 463 kts | 210° |
| 2026-05-06 08:17 | -27.69688 | 27.97538 | 26130 ft | 463 kts | 210° |
| 2026-05-06 08:17 | -27.72763 | 27.96474 | 26113 ft | 461 kts | 210° |
| 2026-05-06 08:17 | -27.75817 | 27.95392 | 26103 ft | 459 kts | 211° |
| 2026-05-06 08:18 | -27.78858 | 27.94303 | 26099 ft | 459 kts | 211° |
| 2026-05-06 08:18 | -27.81909 | 27.93206 | 26101 ft | 460 kts | 211° |
| 2026-05-06 08:18 | -27.84959 | 27.92108 | 26097 ft | 460 kts | 211° |
| 2026-05-06 08:18 | -27.88015 | 27.91015 | 26095 ft | 461 kts | 211° |
| 2026-05-06 08:19 | -27.91088 | 27.89949 | 26099 ft | 462 kts | 210° |
| 2026-05-06 08:19 | -27.94152 | 27.88868 | 26114 ft | 461 kts | 211° |
| 2026-05-06 08:19 | -27.97213 | 27.87777 | 26114 ft | 462 kts | 210° |
| 2026-05-06 08:19 | -28.00331 | 27.86807 | 26106 ft | 468 kts | 206° |
| 2026-05-06 08:20 | -28.03495 | 27.86047 | 26100 ft | 473 kts | 202° |
| 2026-05-06 08:20 | -28.06746 | 27.85398 | 26096 ft | 475 kts | 201° |
| 2026-05-06 08:20 | -28.10008 | 27.84781 | 26090 ft | 476 kts | 201° |
| 2026-05-06 08:20 | -28.13279 | 27.84181 | 26085 ft | 477 kts | 201° |
| 2026-05-06 08:21 | -28.16554 | 27.83560 | 26082 ft | 477 kts | 201° |
| 2026-05-06 08:21 | -28.19826 | 27.82927 | 26077 ft | 477 kts | 201° |
| 2026-05-06 08:21 | -28.23093 | 27.82266 | 26080 ft | 475 kts | 202° |
| 2026-05-06 08:21 | -28.26345 | 27.81591 | 26079 ft | 475 kts | 202° |
| 2026-05-06 08:22 | -28.29597 | 27.80911 | 26074 ft | 475 kts | 202° |
| 2026-05-06 08:22 | -28.32852 | 27.80233 | 26075 ft | 476 kts | 202° |
| 2026-05-06 08:22 | -28.36117 | 27.79587 | 26071 ft | 476 kts | 201° |
| 2026-05-06 08:22 | -28.39380 | 27.78937 | 26045 ft | 476 kts | 202° |
| 2026-05-06 08:23 | -28.42657 | 27.78261 | 25843 ft | 479 kts | 202° |
| 2026-05-06 08:23 | -28.45897 | 27.77599 | 25605 ft | 466 kts | 202° |
| 2026-05-06 08:23 | -28.49081 | 27.76957 | 25410 ft | 464 kts | 202° |
| 2026-05-06 08:23 | -28.52256 | 27.76310 | 25173 ft | 463 kts | 201° |
| 2026-05-06 08:24 | -28.55419 | 27.75659 | 24944 ft | 461 kts | 201° |
| 2026-05-06 08:24 | -28.58574 | 27.75005 | 24501 ft | 460 kts | 201° |
| 2026-05-06 08:24 | -28.61715 | 27.74364 | 23872 ft | 457 kts | 201° |
| 2026-05-06 08:24 | -28.64839 | 27.73736 | 23137 ft | 455 kts | 200° |
| 2026-05-06 08:25 | -28.67905 | 27.73127 | 22367 ft | 451 kts | 200° |
| 2026-05-06 08:25 | -28.70982 | 27.72505 | 21608 ft | 447 kts | 199° |
| 2026-05-06 08:25 | -28.74024 | 27.71871 | 20885 ft | 442 kts | 199° |
| 2026-05-06 08:25 | -28.77025 | 27.71234 | 20244 ft | 436 kts | 199° |
| 2026-05-06 08:26 | -28.79980 | 27.70607 | 19626 ft | 428 kts | 199° |
| 2026-05-06 08:26 | -28.82888 | 27.70005 | 19018 ft | 421 kts | 198° |
| 2026-05-06 08:26 | -28.85745 | 27.69415 | 18439 ft | 414 kts | 198° |
| 2026-05-06 08:26 | -28.88544 | 27.68833 | 17811 ft | 406 kts | 197° |
| 2026-05-06 08:27 | -28.91297 | 27.68258 | 17184 ft | 398 kts | 197° |
| 2026-05-06 08:27 | -28.94001 | 27.67712 | 16584 ft | 391 kts | 197° |
| 2026-05-06 08:27 | -28.96652 | 27.67172 | 15980 ft | 383 kts | 197° |
| 2026-05-06 08:27 | -28.99251 | 27.66636 | 15421 ft | 376 kts | 196° |
| 2026-05-06 08:28 | -29.01796 | 27.66096 | 14855 ft | 369 kts | 196° |
| 2026-05-06 08:28 | -29.04298 | 27.65565 | 14309 ft | 363 kts | 195° |
| 2026-05-06 08:28 | -29.06760 | 27.65056 | 13747 ft | 357 kts | 195° |
| 2026-05-06 08:28 | -29.09189 | 27.64544 | 13128 ft | 354 kts | 195° |
| 2026-05-06 08:29 | -29.11602 | 27.64045 | 12578 ft | 351 kts | 194° |
| 2026-05-06 08:29 | -29.13989 | 27.63557 | 12102 ft | 346 kts | 194° |
| 2026-05-06 08:29 | -29.16341 | 27.63069 | 11656 ft | 339 kts | 194° |
| 2026-05-06 08:29 | -29.18612 | 27.62593 | 11210 ft | 325 kts | 194° |
| 2026-05-06 08:30 | -29.20802 | 27.62133 | 10759 ft | 315 kts | 194° |
| 2026-05-06 08:30 | -29.22930 | 27.61701 | 10306 ft | 307 kts | 193° |
| 2026-05-06 08:30 | -29.25006 | 27.61281 | 9860 ft | 300 kts | 193° |
| 2026-05-06 08:30 | -29.27030 | 27.60865 | 9385 ft | 288 kts | 193° |
| 2026-05-06 08:31 | -29.28963 | 27.60476 | 8938 ft | 277 kts | 192° |
| 2026-05-06 08:31 | -29.30837 | 27.60118 | 8482 ft | 268 kts | 194° |
| 2026-05-06 08:31 | -29.32615 | 27.59614 | 8014 ft | 260 kts | 199° |
| 2026-05-06 08:31 | -29.34316 | 27.59071 | 7537 ft | 249 kts | 199° |
| 2026-05-06 08:32 | -29.35913 | 27.58562 | 7313 ft | 229 kts | 199° |
| 2026-05-06 08:32 | -29.37389 | 27.58082 | 7107 ft | 211 kts | 198° |
| 2026-05-06 08:32 | -29.38718 | 27.57658 | 6919 ft | 190 kts | 198° |
| 2026-05-06 08:32 | -29.39926 | 27.57274 | 6615 ft | 171 kts | 199° |
| 2026-05-06 08:33 | -29.41006 | 27.56928 | 6460 ft | 153 kts | 202° |
| 2026-05-06 08:33 | -29.41749 | 27.56166 | 6413 ft | 144 kts | 240° |
| 2026-05-06 08:33 | -29.42388 | 27.55246 | 6404 ft | 148 kts | 238° |
| 2026-05-06 08:33 | -29.43065 | 27.54365 | 6404 ft | 147 kts | 236° |
| 2026-05-06 08:34 | -29.43779 | 27.53509 | 6383 ft | 152 kts | 218° |
| 2026-05-06 08:34 | -29.45914 | 27.52909 | 6396 ft | 162 kts | 192° |
| 2026-05-06 08:34 | -29.47031 | 27.52734 | 6405 ft | 160 kts | 190° |
| 2026-05-06 08:35 | -29.48134 | 27.52563 | 6412 ft | 164 kts | 193° |
| 2026-05-06 08:35 | -29.49296 | 27.52440 | 6406 ft | 166 kts | 176° |
| 2026-05-06 08:35 | -29.50200 | 27.53103 | 6331 ft | 152 kts | 112° |
| 2026-05-06 08:35 | -29.50319 | 27.54199 | 6373 ft | 133 kts | 57° |
| 2026-05-06 08:36 | -29.49617 | 27.54684 | 6199 ft | 124 kts | 351° |
| 2026-05-06 08:36 | -29.48760 | 27.54498 | 5886 ft | 124 kts | 356° |
| 2026-05-06 08:36 | -29.47927 | 27.54717 | 5640 ft | 124 kts | 12° |
| 2026-05-06 08:36 | -29.47091 | 27.54981 | 5448 ft | 125 kts | 12° |
| 2026-05-06 08:37 | -29.46245 | 27.55245 | 5347 ft | 123 kts | 11° |
| 2026-05-06 08:37 | -29.45537 | 27.55464 | 5333 ft | 81 kts | 15° |
| 2026-05-06 08:37 | -29.45223 | 27.55556 | 5319 ft | 15 kts | 358° |
| 2026-05-06 08:37 | -29.45207 | 27.55569 | 5319 ft | 7 kts | 201° |
| 2026-05-06 08:38 | -29.45254 | 27.55551 | 5321 ft | 9 kts | 197° |
| 2026-05-06 08:38 | -29.45321 | 27.55530 | 5325 ft | 11 kts | 194° |
| 2026-05-06 08:38 | -29.45403 | 27.55506 | 5329 ft | 13 kts | 194° |
| 2026-05-06 08:38 | -29.45487 | 27.55504 | 5330 ft | 12 kts | 137° |
| 2026-05-06 08:39 | -29.45514 | 27.55593 | 5330 ft | 12 kts | 105° |
| 2026-05-06 08:39 | -29.45533 | 27.55674 | 5335 ft | 9 kts | 105° |
| 2026-05-06 08:39 | -29.45542 | 27.55712 | 5331 ft | 0 kts | 105° |
| 2026-05-06 08:40 | -29.45544 | 27.55721 | 5331 ft | 3 kts | 95° |
| 2026-05-06 08:40 | -29.45520 | 27.55757 | 5332 ft | 9 kts | 25° |
| 2026-05-06 08:40 | -29.45463 | 27.55807 | 5331 ft | 12 kts | 79° |
| 2026-05-06 08:41 | -29.45480 | 27.55847 | 5332 ft | 2 kts | 136° |
| 2026-05-06 08:41 | -29.45483 | 27.55850 | 5332 ft | 0 kts | 136° |